Terminal Aerodrome Forecast
Issued by NWS

Home | Current Version | Previous Version | Text Only | Print | Product List | Glossary On
Versions: 1 2 3 4 5 6 7 8 9 10 11 12 13 14 15 16
000
FTUS42 KGSP 252320
TAFAND
TAF
KAND 252320Z 2600/2624 28013G20KT P6SM SKC
      TEMPO 2600/2604 26017G25KT
     FM260400 28009KT P6SM SKC
     FM260900 28005KT P6SM SKC
     FM261400 03004KT P6SM SKC
     FM261600 10003KT P6SM SKC
     FM261700 18003KT P6SM SKC=

USA.gov is the U.S. government's official web portal to all federal, state and local government web resources and services.